To NAV CANADA Home Page Login to a new session Search on AWWS site Feedback and Comments Disclaimer Vers la page française équivalente Tips FAQ What's new on the site To the Forecasts and Observations / NOTAM section To "File a Flight Plan" website Publications and other links Update of the User's profile FIC Telephone Numbers My Weather Data Folder Route Weather Data Regional Weather Data Local Weather Data To the Forecasts and Observations / NOTAM section
Request Generated 05/25/2016 at 05:07:56 UTC . Weather information available at that time is displayed.

METAR/TAF

LONDON/ON    

METAR CYXU 250500Z 19003KT 15SM FEW260 17/07 A3001 RMK CI2 SLP162
DENSITY ALT 1200FT=
METAR CYXU 250400Z 19003KT 15SM FEW100 BKN260 17/08 A3001 RMK AC1CI4
SLP162 DENSITY ALT 1200FT=
METAR CYXU 250300Z 19003KT 15SM SKC 18/08 A3002 RMK SLP164 DENSITY
ALT 1300FT=

TAF CYXU 242338Z 2500/2524 18008KT P6SM SCT250
FM250900 29007KT P6SM SCT070 BKN140
FM251600 24010G20KT P6SM BKN060 TEMPO 2516/2520 P6SM -SHRA PROB30
2516/2520 VRB15G25KT 4SM TSRA BKN040CB
FM252200 29008KT P6SM BKN060
RMK NXT FCST BY 250600Z=
Your time UTC time
Weather data provided by Environment Canada and NAV CANADA